sensor_id;sensor_type;location;lat;lon;timestamp;pressure;altitude;pressure_sealevel;temperature;humidity
55916;BME280;41826;53.246;-6.670;2022-08-20T00:00:26;100496.56;;;14.63;100.00
55916;BME280;41826;53.246;-6.670;2022-08-20T00:02:58;100494.28;;;14.60;100.00
55916;BME280;41826;53.246;-6.670;2022-08-20T00:05:33;100489.34;;;14.57;100.00
55916;BME280;41826;53.246;-6.670;2022-08-20T00:08:00;100493.06;;;14.71;100.00
55916;BME280;41826;53.246;-6.670;2022-08-20T00:10:27;100488.94;;;14.68;100.00
55916;BME280;41826;53.246;-6.670;2022-08-20T00:12:53;100485.31;;;14.69;100.00
55916;BME280;41826;53.246;-6.670;2022-08-20T00:15:26;100482.47;;;14.71;100.00
55916;BME280;41826;53.246;-6.670;2022-08-20T00:17:53;100482.53;;;14.63;100.00
55916;BME280;41826;53.246;-6.670;2022-08-20T00:20:21;100484.00;;;14.65;100.00
55916;BME280;41826;53.246;-6.670;2022-08-20T00:22:47;100476.56;;;14.69;100.00
55916;BME280;41826;53.246;-6.670;2022-08-20T00:25:13;100477.69;;;14.74;100.00
55916;BME280;41826;53.246;-6.670;2022-08-20T00:27:38;100467.13;;;14.74;100.00
55916;BME280;41826;53.246;-6.670;2022-08-20T00:30:08;100466.00;;;14.69;100.00
55916;BME280;41826;53.246;-6.670;2022-08-20T00:32:46;100460.88;;;14.67;100.00
55916;BME280;41826;53.246;-6.670;2022-08-20T00:35:17;100461.81;;;14.74;100.00
55916;BME280;41826;53.246;-6.670;2022-08-20T00:37:43;100472.75;;;14.71;100.00
55916;BME280;41826;53.246;-6.670;2022-08-20T00:40:10;100470.72;;;14.73;100.00
55916;BME280;41826;53.246;-6.670;2022-08-20T00:42:45;100476.50;;;14.77;100.00
55916;BME280;41826;53.246;-6.670;2022-08-20T00:45:13;100458.00;;;14.77;100.00
55916;BME280;41826;53.246;-6.670;2022-08-20T00:47:38;100461.34;;;14.71;100.00
55916;BME280;41826;53.246;-6.670;2022-08-20T00:50:09;100454.56;;;14.77;100.00
55916;BME280;41826;53.246;-6.670;2022-08-20T00:52:36;100449.47;;;14.90;100.00
55916;BME280;41826;53.246;-6.670;2022-08-20T00:55:03;100452.72;;;14.77;100.00
55916;BME280;41826;53.246;-6.670;2022-08-20T00:59:55;100444.28;;;14.82;100.00
55916;BME280;41826;53.246;-6.670;2022-08-20T01:02:23;100438.34;;;14.80;100.00
55916;BME280;41826;53.246;-6.670;2022-08-20T01:04:52;100423.28;;;14.80;100.00
55916;BME280;41826;53.246;-6.670;2022-08-20T01:07:22;100437.09;;;14.90;100.00
55916;BME280;41826;53.246;-6.670;2022-08-20T01:09:55;100422.41;;;14.88;100.00
55916;BME280;41826;53.246;-6.670;2022-08-20T01:12:21;100425.13;;;14.80;100.00
55916;BME280;41826;53.246;-6.670;2022-08-20T01:14:47;100430.47;;;14.71;100.00
55916;BME280;41826;53.246;-6.670;2022-08-20T01:17:15;100429.09;;;14.76;100.00
55916;BME280;41826;53.246;-6.670;2022-08-20T01:20:10;100424.16;;;14.95;100.00
55916;BME280;41826;53.246;-6.670;2022-08-20T01:31:07;100414.38;;;14.81;100.00
55916;BME280;41826;53.246;-6.670;2022-08-20T01:33:33;100405.09;;;14.85;100.00
55916;BME280;41826;53.246;-6.670;2022-08-20T01:35:59;100405.38;;;14.90;100.00
55916;BME280;41826;53.246;-6.670;2022-08-20T01:38:26;100397.28;;;14.92;100.00
55916;BME280;41826;53.246;-6.670;2022-08-20T01:43:52;100401.88;;;14.75;100.00
55916;BME280;41826;53.246;-6.670;2022-08-20T01:46:26;100407.06;;;14.83;100.00
55916;BME280;41826;53.246;-6.670;2022-08-20T01:48:52;100401.78;;;14.83;100.00
55916;BME280;41826;53.246;-6.670;2022-08-20T01:51:23;100398.44;;;14.89;100.00
55916;BME280;41826;53.246;-6.670;2022-08-20T01:53:52;100402.72;;;14.90;100.00
55916;BME280;41826;53.246;-6.670;2022-08-20T01:56:21;100398.91;;;14.93;100.00
55916;BME280;41826;53.246;-6.670;2022-08-20T01:58:49;100397.69;;;14.81;100.00
55916;BME280;41826;53.246;-6.670;2022-08-20T02:01:42;100398.63;;;14.88;100.00
55916;BME280;41826;53.246;-6.670;2022-08-20T02:04:08;100397.00;;;14.87;100.00
55916;BME280;41826;53.246;-6.670;2022-08-20T02:06:38;100398.69;;;14.80;100.00
55916;BME280;41826;53.246;-6.670;2022-08-20T02:09:06;100399.41;;;14.73;100.00
55916;BME280;41826;53.246;-6.670;2022-08-20T02:11:33;100386.59;;;14.85;100.00
55916;BME280;41826;53.246;-6.670;2022-08-20T02:13:59;100397.63;;;14.89;100.00
55916;BME280;41826;53.246;-6.670;2022-08-20T02:16:31;100391.50;;;14.88;100.00
55916;BME280;41826;53.246;-6.670;2022-08-20T02:19:00;100405.00;;;14.79;100.00
55916;BME280;41826;53.246;-6.670;2022-08-20T02:21:30;100405.31;;;14.76;100.00
55916;BME280;41826;53.246;-6.670;2022-08-20T02:23:57;100410.84;;;14.66;100.00
55916;BME280;41826;53.246;-6.670;2022-08-20T02:26:24;100424.63;;;14.61;100.00
55916;BME280;41826;53.246;-6.670;2022-08-20T02:28:51;100412.41;;;14.52;100.00
55916;BME280;41826;53.246;-6.670;2022-08-20T02:31:19;100416.41;;;14.56;100.00
55916;BME280;41826;53.246;-6.670;2022-08-20T02:33:45;100413.56;;;14.58;100.00
55916;BME280;41826;53.246;-6.670;2022-08-20T02:36:13;100410.56;;;14.61;100.00
55916;BME280;41826;53.246;-6.670;2022-08-20T02:38:41;100411.44;;;14.53;100.00
55916;BME280;41826;53.246;-6.670;2022-08-20T02:41:09;100404.84;;;14.49;100.00
55916;BME280;41826;53.246;-6.670;2022-08-20T02:43:35;100402.34;;;14.56;100.00
55916;BME280;41826;53.246;-6.670;2022-08-20T02:46:03;100417.50;;;14.62;100.00
55916;BME280;41826;53.246;-6.670;2022-08-20T02:48:29;100411.47;;;14.45;100.00
55916;BME280;41826;53.246;-6.670;2022-08-20T02:50:58;100406.66;;;14.57;100.00
55916;BME280;41826;53.246;-6.670;2022-08-20T02:53:27;100396.72;;;14.59;100.00
55916;BME280;41826;53.246;-6.670;2022-08-20T02:55:53;100395.84;;;14.66;100.00
55916;BME280;41826;53.246;-6.670;2022-08-20T02:58:19;100376.09;;;14.77;100.00
55916;BME280;41826;53.246;-6.670;2022-08-20T03:00:45;100367.28;;;14.85;100.00
55916;BME280;41826;53.246;-6.670;2022-08-20T03:03:12;100358.03;;;14.81;100.00
55916;BME280;41826;53.246;-6.670;2022-08-20T03:05:41;100351.50;;;14.77;100.00
55916;BME280;41826;53.246;-6.670;2022-08-20T03:08:08;100344.25;;;14.70;100.00
55916;BME280;41826;53.246;-6.670;2022-08-20T03:10:35;100341.25;;;14.73;100.00
55916;BME280;41826;53.246;-6.670;2022-08-20T03:13:01;100334.78;;;14.61;100.00
55916;BME280;41826;53.246;-6.670;2022-08-20T03:15:28;100333.63;;;14.64;100.00
55916;BME280;41826;53.246;-6.670;2022-08-20T03:17:54;100332.59;;;14.65;100.00
55916;BME280;41826;53.246;-6.670;2022-08-20T03:20:20;100330.59;;;14.67;100.00
55916;BME280;41826;53.246;-6.670;2022-08-20T03:22:45;100336.06;;;14.65;100.00
55916;BME280;41826;53.246;-6.670;2022-08-20T03:25:13;100331.44;;;14.82;100.00
55916;BME280;41826;53.246;-6.670;2022-08-20T03:27:38;100329.72;;;14.74;100.00
55916;BME280;41826;53.246;-6.670;2022-08-20T03:30:07;100323.88;;;14.79;100.00
55916;BME280;41826;53.246;-6.670;2022-08-20T03:32:32;100321.97;;;14.88;100.00
55916;BME280;41826;53.246;-6.670;2022-08-20T03:34:58;100327.72;;;14.77;100.00
55916;BME280;41826;53.246;-6.670;2022-08-20T03:37:23;100324.44;;;14.74;100.00
55916;BME280;41826;53.246;-6.670;2022-08-20T03:39:49;100318.66;;;14.71;100.00
55916;BME280;41826;53.246;-6.670;2022-08-20T03:42:14;100326.66;;;14.63;100.00
55916;BME280;41826;53.246;-6.670;2022-08-20T03:44:40;100317.03;;;14.70;100.00
55916;BME280;41826;53.246;-6.670;2022-08-20T03:47:05;100319.13;;;14.74;100.00
55916;BME280;41826;53.246;-6.670;2022-08-20T03:49:34;100314.91;;;14.65;100.00
55916;BME280;41826;53.246;-6.670;2022-08-20T03:52:01;100313.94;;;14.66;100.00
55916;BME280;41826;53.246;-6.670;2022-08-20T03:54:28;100313.53;;;14.55;100.00
55916;BME280;41826;53.246;-6.670;2022-08-20T03:56:53;100320.34;;;14.49;100.00
55916;BME280;41826;53.246;-6.670;2022-08-20T03:59:19;100313.06;;;14.51;100.00
55916;BME280;41826;53.246;-6.670;2022-08-20T04:01:44;100301.19;;;14.47;100.00
55916;BME280;41826;53.246;-6.670;2022-08-20T04:04:10;100309.75;;;14.49;100.00
55916;BME280;41826;53.246;-6.670;2022-08-20T04:06:35;100315.47;;;14.38;100.00
55916;BME280;41826;53.246;-6.670;2022-08-20T04:09:01;100313.66;;;14.38;100.00
55916;BME280;41826;53.246;-6.670;2022-08-20T04:11:26;100317.66;;;14.34;100.00
55916;BME280;41826;53.246;-6.670;2022-08-20T04:13:52;100308.66;;;14.43;100.00
55916;BME280;41826;53.246;-6.670;2022-08-20T04:16:17;100303.31;;;14.51;100.00
55916;BME280;41826;53.246;-6.670;2022-08-20T04:18:42;100306.47;;;14.47;100.00
55916;BME280;41826;53.246;-6.670;2022-08-20T04:21:08;100306.44;;;14.55;100.00
55916;BME280;41826;53.246;-6.670;2022-08-20T04:23:33;100296.19;;;14.52;100.00
55916;BME280;41826;53.246;-6.670;2022-08-20T04:25:59;100301.66;;;14.50;100.00
55916;BME280;41826;53.246;-6.670;2022-08-20T04:28:26;100310.72;;;14.56;100.00
55916;BME280;41826;53.246;-6.670;2022-08-20T04:30:54;100300.78;;;14.58;100.00
55916;BME280;41826;53.246;-6.670;2022-08-20T04:33:20;100309.00;;;14.63;100.00
55916;BME280;41826;53.246;-6.670;2022-08-20T04:35:46;100305.66;;;14.69;100.00
55916;BME280;41826;53.246;-6.670;2022-08-20T04:38:14;100298.41;;;14.63;100.00
55916;BME280;41826;53.246;-6.670;2022-08-20T04:40:40;100297.44;;;14.64;100.00
55916;BME280;41826;53.246;-6.670;2022-08-20T04:43:19;100295.22;;;14.53;100.00
55916;BME280;41826;53.246;-6.670;2022-08-20T04:45:47;100297.22;;;14.51;100.00
55916;BME280;41826;53.246;-6.670;2022-08-20T04:48:13;100308.59;;;14.51;100.00
55916;BME280;41826;53.246;-6.670;2022-08-20T04:50:41;100310.94;;;14.46;100.00
55916;BME280;41826;53.246;-6.670;2022-08-20T04:53:09;100318.81;;;14.31;100.00
55916;BME280;41826;53.246;-6.670;2022-08-20T04:55:36;100320.56;;;14.39;100.00
55916;BME280;41826;53.246;-6.670;2022-08-20T04:58:11;100317.03;;;14.47;100.00
55916;BME280;41826;53.246;-6.670;2022-08-20T05:00:37;100318.22;;;14.44;100.00
55916;BME280;41826;53.246;-6.670;2022-08-20T05:03:04;100325.72;;;14.32;100.00
55916;BME280;41826;53.246;-6.670;2022-08-20T05:05:31;100327.97;;;14.21;100.00
55916;BME280;41826;53.246;-6.670;2022-08-20T05:07:59;100333.63;;;14.41;100.00
55916;BME280;41826;53.246;-6.670;2022-08-20T05:10:26;100333.13;;;14.37;100.00
55916;BME280;41826;53.246;-6.670;2022-08-20T05:12:52;100334.31;;;14.35;100.00
55916;BME280;41826;53.246;-6.670;2022-08-20T05:15:18;100338.31;;;14.30;100.00
55916;BME280;41826;53.246;-6.670;2022-08-20T05:17:43;100336.78;;;14.36;100.00
55916;BME280;41826;53.246;-6.670;2022-08-20T05:20:12;100334.38;;;14.26;100.00
55916;BME280;41826;53.246;-6.670;2022-08-20T05:22:38;100341.34;;;14.19;100.00
55916;BME280;41826;53.246;-6.670;2022-08-20T05:25:04;100332.13;;;14.15;100.00
55916;BME280;41826;53.246;-6.670;2022-08-20T05:27:30;100345.31;;;14.15;100.00
55916;BME280;41826;53.246;-6.670;2022-08-20T05:30:01;100353.44;;;14.14;100.00
55916;BME280;41826;53.246;-6.670;2022-08-20T05:32:29;100354.59;;;14.11;100.00
55916;BME280;41826;53.246;-6.670;2022-08-20T05:34:54;100358.53;;;14.15;100.00
55916;BME280;41826;53.246;-6.670;2022-08-20T05:37:20;100356.25;;;14.12;100.00
55916;BME280;41826;53.246;-6.670;2022-08-20T05:39:45;100359.53;;;14.14;100.00
55916;BME280;41826;53.246;-6.670;2022-08-20T05:42:11;100357.66;;;14.23;100.00
55916;BME280;41826;53.246;-6.670;2022-08-20T05:44:37;100360.47;;;14.21;100.00
55916;BME280;41826;53.246;-6.670;2022-08-20T05:47:03;100362.31;;;14.21;100.00
55916;BME280;41826;53.246;-6.670;2022-08-20T05:49:29;100370.69;;;14.24;100.00
55916;BME280;41826;53.246;-6.670;2022-08-20T05:51:55;100363.72;;;14.31;100.00
55916;BME280;41826;53.246;-6.670;2022-08-20T05:54:20;100376.56;;;14.35;100.00
55916;BME280;41826;53.246;-6.670;2022-08-20T05:56:46;100369.44;;;14.35;100.00
55916;BME280;41826;53.246;-6.670;2022-08-20T05:59:12;100368.63;;;14.35;100.00
55916;BME280;41826;53.246;-6.670;2022-08-20T06:01:39;100360.19;;;14.39;100.00
55916;BME280;41826;53.246;-6.670;2022-08-20T06:04:06;100361.38;;;14.37;100.00
55916;BME280;41826;53.246;-6.670;2022-08-20T06:07:03;100361.81;;;14.40;100.00
55916;BME280;41826;53.246;-6.670;2022-08-20T06:09:29;100362.47;;;14.42;100.00
55916;BME280;41826;53.246;-6.670;2022-08-20T06:11:55;100368.53;;;14.51;100.00
55916;BME280;41826;53.246;-6.670;2022-08-20T06:14:22;100364.06;;;14.51;100.00
55916;BME280;41826;53.246;-6.670;2022-08-20T06:16:48;100371.50;;;14.56;100.00
55916;BME280;41826;53.246;-6.670;2022-08-20T06:19:13;100375.03;;;14.63;100.00
55916;BME280;41826;53.246;-6.670;2022-08-20T06:21:40;100364.59;;;14.70;100.00
55916;BME280;41826;53.246;-6.670;2022-08-20T06:24:06;100363.25;;;14.74;100.00
55916;BME280;41826;53.246;-6.670;2022-08-20T06:26:32;100362.75;;;14.70;100.00
55916;BME280;41826;53.246;-6.670;2022-08-20T06:28:59;100352.59;;;14.82;100.00
55916;BME280;41826;53.246;-6.670;2022-08-20T06:31:25;100350.59;;;14.84;100.00
55916;BME280;41826;53.246;-6.670;2022-08-20T06:33:51;100354.06;;;14.85;100.00
55916;BME280;41826;53.246;-6.670;2022-08-20T06:36:16;100346.69;;;14.95;100.00
55916;BME280;41826;53.246;-6.670;2022-08-20T06:38:42;100345.88;;;14.94;100.00
55916;BME280;41826;53.246;-6.670;2022-08-20T06:41:08;100345.75;;;14.88;100.00
55916;BME280;41826;53.246;-6.670;2022-08-20T06:43:33;100345.69;;;14.81;100.00
55916;BME280;41826;53.246;-6.670;2022-08-20T06:45:59;100345.75;;;14.88;100.00
55916;BME280;41826;53.246;-6.670;2022-08-20T06:48:24;100337.13;;;14.94;100.00
55916;BME280;41826;53.246;-6.670;2022-08-20T06:50:50;100337.94;;;14.94;100.00
55916;BME280;41826;53.246;-6.670;2022-08-20T06:53:18;100349.44;;;15.02;100.00
55916;BME280;41826;53.246;-6.670;2022-08-20T06:55:49;100336.38;;;15.00;100.00
55916;BME280;41826;53.246;-6.670;2022-08-20T06:58:15;100346.31;;;14.98;100.00
55916;BME280;41826;53.246;-6.670;2022-08-20T07:00:44;100348.50;;;14.94;100.00
55916;BME280;41826;53.246;-6.670;2022-08-20T07:03:10;100350.34;;;14.94;100.00
55916;BME280;41826;53.246;-6.670;2022-08-20T07:05:40;100353.44;;;14.98;100.00
55916;BME280;41826;53.246;-6.670;2022-08-20T07:08:11;100343.78;;;15.05;100.00
55916;BME280;41826;53.246;-6.670;2022-08-20T07:10:39;100343.94;;;15.03;100.00
55916;BME280;41826;53.246;-6.670;2022-08-20T07:13:05;100344.06;;;15.10;100.00
55916;BME280;41826;53.246;-6.670;2022-08-20T07:15:31;100334.84;;;15.35;100.00
55916;BME280;41826;53.246;-6.670;2022-08-20T07:18:00;100326.25;;;15.78;100.00
55916;BME280;41826;53.246;-6.670;2022-08-20T07:20:27;100318.69;;;15.96;100.00
55916;BME280;41826;53.246;-6.670;2022-08-20T07:22:53;100316.41;;;16.15;100.00
55916;BME280;41826;53.246;-6.670;2022-08-20T07:25:20;100318.41;;;16.56;100.00
55916;BME280;41826;53.246;-6.670;2022-08-20T07:27:46;100305.91;;;16.71;100.00
55916;BME280;41826;53.246;-6.670;2022-08-20T07:30:22;100305.50;;;17.02;100.00
55916;BME280;41826;53.246;-6.670;2022-08-20T07:33:07;100301.75;;;16.90;100.00
55916;BME280;41826;53.246;-6.670;2022-08-20T07:35:33;100289.66;;;16.81;100.00
55916;BME280;41826;53.246;-6.670;2022-08-20T07:37:58;100296.16;;;16.78;100.00
55916;BME280;41826;53.246;-6.670;2022-08-20T07:40:27;100310.22;;;16.51;100.00
55916;BME280;41826;53.246;-6.670;2022-08-20T07:42:57;100301.66;;;16.27;100.00
55916;BME280;41826;53.246;-6.670;2022-08-20T07:45:25;100310.38;;;16.21;100.00
55916;BME280;41826;53.246;-6.670;2022-08-20T07:47:51;100313.91;;;16.07;100.00
55916;BME280;41826;53.246;-6.670;2022-08-20T07:50:20;100310.00;;;16.74;100.00
55916;BME280;41826;53.246;-6.670;2022-08-20T07:52:47;100307.25;;;16.88;100.00
55916;BME280;41826;53.246;-6.670;2022-08-20T07:55:14;100308.22;;;17.16;100.00
55916;BME280;41826;53.246;-6.670;2022-08-20T07:57:41;100302.00;;;16.95;100.00
55916;BME280;41826;53.246;-6.670;2022-08-20T08:00:09;100301.59;;;16.98;100.00
55916;BME280;41826;53.246;-6.670;2022-08-20T08:02:36;100301.94;;;17.23;100.00
55916;BME280;41826;53.246;-6.670;2022-08-20T08:05:02;100302.44;;;17.47;100.00
55916;BME280;41826;53.246;-6.670;2022-08-20T08:07:29;100301.03;;;17.51;100.00
55916;BME280;41826;53.246;-6.670;2022-08-20T08:09:55;100303.16;;;17.69;100.00
55916;BME280;41826;53.246;-6.670;2022-08-20T08:12:21;100300.81;;;17.46;100.00
55916;BME280;41826;53.246;-6.670;2022-08-20T08:14:48;100301.13;;;17.71;100.00
55916;BME280;41826;53.246;-6.670;2022-08-20T08:17:15;100287.09;;;17.97;100.00
55916;BME280;41826;53.246;-6.670;2022-08-20T08:19:47;100292.16;;;17.79;100.00
55916;BME280;41826;53.246;-6.670;2022-08-20T08:22:15;100295.88;;;17.97;100.00
55916;BME280;41826;53.246;-6.670;2022-08-20T08:24:42;100289.56;;;17.98;100.00
55916;BME280;41826;53.246;-6.670;2022-08-20T08:27:09;100301.41;;;17.96;100.00
55916;BME280;41826;53.246;-6.670;2022-08-20T08:29:35;100303.03;;;17.90;100.00
55916;BME280;41826;53.246;-6.670;2022-08-20T08:32:05;100301.13;;;17.71;100.00
55916;BME280;41826;53.246;-6.670;2022-08-20T08:34:32;100294.06;;;17.98;100.00
55916;BME280;41826;53.246;-6.670;2022-08-20T08:36:58;100298.78;;;18.09;100.00
55916;BME280;41826;53.246;-6.670;2022-08-20T08:39:27;100299.38;;;17.98;100.00
55916;BME280;41826;53.246;-6.670;2022-08-20T08:41:53;100297.97;;;18.15;100.00
55916;BME280;41826;53.246;-6.670;2022-08-20T08:44:23;100295.50;;;18.14;100.00
55916;BME280;41826;53.246;-6.670;2022-08-20T08:47:05;100293.50;;;18.36;100.00
55916;BME280;41826;53.246;-6.670;2022-08-20T08:49:43;100299.59;;;18.30;100.00
55916;BME280;41826;53.246;-6.670;2022-08-20T08:52:14;100288.78;;;18.51;100.00
55916;BME280;41826;53.246;-6.670;2022-08-20T08:54:47;100288.75;;;18.58;100.00
55916;BME280;41826;53.246;-6.670;2022-08-20T08:57:14;100286.50;;;18.88;100.00
55916;BME280;41826;53.246;-6.670;2022-08-20T08:59:40;100284.66;;;18.89;100.00
55916;BME280;41826;53.246;-6.670;2022-08-20T09:02:06;100283.03;;;18.94;100.00
55916;BME280;41826;53.246;-6.670;2022-08-20T09:04:35;100281.97;;;19.02;100.00
55916;BME280;41826;53.246;-6.670;2022-08-20T09:07:03;100274.66;;;18.77;100.00
55916;BME280;41826;53.246;-6.670;2022-08-20T09:09:41;100280.94;;;19.10;100.00
55916;BME280;41826;53.246;-6.670;2022-08-20T09:12:16;100280.03;;;19.29;100.00
55916;BME280;41826;53.246;-6.670;2022-08-20T09:14:46;100279.38;;;19.40;100.00
55916;BME280;41826;53.246;-6.670;2022-08-20T09:17:13;100270.34;;;19.41;100.00
55916;BME280;41826;53.246;-6.670;2022-08-20T09:19:38;100272.19;;;19.41;100.00
55916;BME280;41826;53.246;-6.670;2022-08-20T09:22:14;100261.63;;;19.21;100.00
55916;BME280;41826;53.246;-6.670;2022-08-20T09:24:41;100276.03;;;19.07;100.00
55916;BME280;41826;53.246;-6.670;2022-08-20T09:27:07;100280.38;;;19.39;100.00
55916;BME280;41826;53.246;-6.670;2022-08-20T09:29:33;100274.38;;;19.57;100.00
55916;BME280;41826;53.246;-6.670;2022-08-20T09:32:11;100270.31;;;19.93;100.00
55916;BME280;41826;53.246;-6.670;2022-08-20T09:34:39;100277.44;;;19.99;100.00
55916;BME280;41826;53.246;-6.670;2022-08-20T09:37:05;100275.50;;;20.13;100.00
55916;BME280;41826;53.246;-6.670;2022-08-20T09:39:30;100283.22;;;19.89;100.00
55916;BME280;41826;53.246;-6.670;2022-08-20T09:42:06;100281.06;;;20.05;100.00
55916;BME280;41826;53.246;-6.670;2022-08-20T09:44:31;100271.19;;;20.12;100.00
55916;BME280;41826;53.246;-6.670;2022-08-20T09:46:56;100282.22;;;19.90;100.00
55916;BME280;41826;53.246;-6.670;2022-08-20T09:49:22;100263.69;;;20.27;100.00
55916;BME280;41826;53.246;-6.670;2022-08-20T09:51:47;100272.25;;;20.36;100.00
55916;BME280;41826;53.246;-6.670;2022-08-20T09:54:12;100276.00;;;19.58;100.00
55916;BME280;41826;53.246;-6.670;2022-08-20T09:56:38;100270.44;;;19.73;100.00
55916;BME280;41826;53.246;-6.670;2022-08-20T09:59:03;100271.66;;;20.02;100.00
55916;BME280;41826;53.246;-6.670;2022-08-20T10:01:30;100267.06;;;20.16;100.00
55916;BME280;41826;53.246;-6.670;2022-08-20T10:03:55;100270.16;;;19.81;100.00
55916;BME280;41826;53.246;-6.670;2022-08-20T10:06:21;100277.28;;;19.87;100.00
55916;BME280;41826;53.246;-6.670;2022-08-20T10:08:47;100259.84;;;19.91;100.00
55916;BME280;41826;53.246;-6.670;2022-08-20T10:11:13;100275.34;;;20.08;100.00
55916;BME280;41826;53.246;-6.670;2022-08-20T10:13:39;100279.88;;;20.01;100.00
55916;BME280;41826;53.246;-6.670;2022-08-20T10:16:04;100259.66;;;19.93;100.00
55916;BME280;41826;53.246;-6.670;2022-08-20T10:18:30;100260.16;;;20.08;100.00
55916;BME280;41826;53.246;-6.670;2022-08-20T10:20:55;100258.78;;;20.24;100.00
55916;BME280;41826;53.246;-6.670;2022-08-20T10:23:20;100275.06;;;19.39;100.00
55916;BME280;41826;53.246;-6.670;2022-08-20T10:25:46;100272.66;;;19.76;100.00
55916;BME280;41826;53.246;-6.670;2022-08-20T10:28:11;100271.22;;;19.80;100.00
55916;BME280;41826;53.246;-6.670;2022-08-20T10:30:37;100267.06;;;19.84;100.00
55916;BME280;41826;53.246;-6.670;2022-08-20T10:33:02;100272.53;;;19.96;100.00
55916;BME280;41826;53.246;-6.670;2022-08-20T10:35:28;100258.56;;;20.01;100.00
55916;BME280;41826;53.246;-6.670;2022-08-20T10:37:53;100264.84;;;19.81;100.00
55916;BME280;41826;53.246;-6.670;2022-08-20T10:40:19;100253.78;;;20.09;100.00
55916;BME280;41826;53.246;-6.670;2022-08-20T10:42:45;100250.88;;;19.86;100.00
55916;BME280;41826;53.246;-6.670;2022-08-20T10:45:12;100251.19;;;20.03;100.00
55916;BME280;41826;53.246;-6.670;2022-08-20T10:47:38;100249.88;;;20.12;100.00
55916;BME280;41826;53.246;-6.670;2022-08-20T10:50:08;100230.69;;;20.28;100.00
55916;BME280;41826;53.246;-6.670;2022-08-20T10:52:33;100223.84;;;20.32;100.00
55916;BME280;41826;53.246;-6.670;2022-08-20T10:54:59;100240.25;;;20.11;100.00
55916;BME280;41826;53.246;-6.670;2022-08-20T10:57:27;100242.88;;;19.86;100.00
55916;BME280;41826;53.246;-6.670;2022-08-20T10:59:55;100241.19;;;20.23;100.00
55916;BME280;41826;53.246;-6.670;2022-08-20T11:02:21;100234.75;;;20.56;100.00
55916;BME280;41826;53.246;-6.670;2022-08-20T11:04:47;100235.28;;;20.83;100.00
55916;BME280;41826;53.246;-6.670;2022-08-20T11:07:24;100231.00;;;20.82;100.00
55916;BME280;41826;53.246;-6.670;2022-08-20T11:09:51;100233.63;;;21.19;100.00
55916;BME280;41826;53.246;-6.670;2022-08-20T11:12:18;100226.59;;;21.25;100.00
55916;BME280;41826;53.246;-6.670;2022-08-20T11:14:44;100234.22;;;21.21;100.00
55916;BME280;41826;53.246;-6.670;2022-08-20T11:17:09;100227.50;;;21.00;100.00
55916;BME280;41826;53.246;-6.670;2022-08-20T11:19:43;100220.56;;;21.48;100.00
55916;BME280;41826;53.246;-6.670;2022-08-20T11:22:09;100222.84;;;21.44;100.00
55916;BME280;41826;53.246;-6.670;2022-08-20T11:24:36;100218.50;;;21.13;100.00
55916;BME280;41826;53.246;-6.670;2022-08-20T11:27:03;100228.78;;;20.79;100.00
55916;BME280;41826;53.246;-6.670;2022-08-20T11:29:29;100229.56;;;20.80;100.00
55916;BME280;41826;53.246;-6.670;2022-08-20T11:31:54;100224.75;;;20.70;100.00
55916;BME280;41826;53.246;-6.670;2022-08-20T11:34:20;100224.91;;;20.75;100.00
55916;BME280;41826;53.246;-6.670;2022-08-20T11:36:47;100220.16;;;20.59;100.00
55916;BME280;41826;53.246;-6.670;2022-08-20T11:39:13;100211.28;;;21.02;100.00
55916;BME280;41826;53.246;-6.670;2022-08-20T11:41:39;100210.81;;;21.05;100.00
55916;BME280;41826;53.246;-6.670;2022-08-20T11:44:05;100205.66;;;21.40;100.00
55916;BME280;41826;53.246;-6.670;2022-08-20T11:46:30;100200.78;;;21.18;100.00
55916;BME280;41826;53.246;-6.670;2022-08-20T11:48:57;100213.25;;;20.88;100.00
55916;BME280;41826;53.246;-6.670;2022-08-20T11:51:23;100201.69;;;20.75;100.00
55916;BME280;41826;53.246;-6.670;2022-08-20T11:53:48;100201.41;;;21.02;100.00
55916;BME280;41826;53.246;-6.670;2022-08-20T11:56:15;100193.13;;;21.40;100.00
55916;BME280;41826;53.246;-6.670;2022-08-20T11:58:41;100204.03;;;21.20;100.00
55916;BME280;41826;53.246;-6.670;2022-08-20T12:01:07;100196.66;;;21.04;100.00
55916;BME280;41826;53.246;-6.670;2022-08-20T12:03:32;100192.44;;;21.45;100.00
55916;BME280;41826;53.246;-6.670;2022-08-20T12:05:58;100183.34;;;21.76;100.00
55916;BME280;41826;53.246;-6.670;2022-08-20T12:08:23;100190.06;;;21.79;100.00
55916;BME280;41826;53.246;-6.670;2022-08-20T12:10:49;100180.53;;;21.71;100.00
55916;BME280;41826;53.246;-6.670;2022-08-20T12:13:14;100185.63;;;21.61;100.00
55916;BME280;41826;53.246;-6.670;2022-08-20T12:15:39;100187.78;;;22.06;100.00
55916;BME280;41826;53.246;-6.670;2022-08-20T12:18:08;100190.75;;;21.62;100.00
55916;BME280;41826;53.246;-6.670;2022-08-20T12:20:35;100191.84;;;21.43;100.00
55916;BME280;41826;53.246;-6.670;2022-08-20T12:23:01;100175.28;;;21.64;100.00
55916;BME280;41826;53.246;-6.670;2022-08-20T12:25:27;100186.09;;;21.70;100.00
55916;BME280;41826;53.246;-6.670;2022-08-20T12:27:53;100185.31;;;21.39;100.00
55916;BME280;41826;53.246;-6.670;2022-08-20T12:30:20;100190.75;;;21.32;100.00
55916;BME280;41826;53.246;-6.670;2022-08-20T12:32:46;100192.84;;;21.72;100.00
55916;BME280;41826;53.246;-6.670;2022-08-20T12:35:13;100190.03;;;21.55;100.00
55916;BME280;41826;53.246;-6.670;2022-08-20T12:37:40;100182.88;;;21.68;100.00
55916;BME280;41826;53.246;-6.670;2022-08-20T12:40:14;100188.72;;;21.88;100.00
55916;BME280;41826;53.246;-6.670;2022-08-20T12:42:40;100182.66;;;21.81;100.00
55916;BME280;41826;53.246;-6.670;2022-08-20T12:45:06;100189.97;;;21.85;100.00